createdAt,value
2023-11-25T00:01:56.287Z,97483.78
2023-11-25T00:06:59.548Z,97474.69
2023-11-25T00:12:02.400Z,97494.88
2023-11-25T00:17:05.514Z,97517.44
2023-11-25T00:22:08.353Z,97521.25
2023-11-25T00:27:11.199Z,97524.22
2023-11-25T00:32:14.069Z,97537.41
2023-11-25T00:37:17.965Z,97543.56
2023-11-25T00:42:23.035Z,97552.22
2023-11-25T00:47:26.027Z,97552.56
2023-11-25T00:52:28.947Z,97559.75
2023-11-25T00:57:32.440Z,97563.25
2023-11-25T01:02:35.420Z,97564.06
2023-11-25T01:07:39.422Z,97573.19
2023-11-25T01:12:42.803Z,97581.88
2023-11-25T01:17:45.896Z,97588.84
2023-11-25T01:22:49.858Z,97596.75
2023-11-25T01:27:55.515Z,97595.44
2023-11-25T01:33:01.815Z,97601.59
2023-11-25T01:38:05.050Z,97606.41
2023-11-25T01:43:13.351Z,97611.03
2023-11-25T01:48:16.606Z,97635.91
2023-11-25T01:53:23.097Z,97639.63
2023-11-25T01:58:26.546Z,97653.59
2023-11-25T02:03:29.367Z,97668.88
2023-11-25T02:08:32.519Z,97675.44
2023-11-25T02:13:35.461Z,97682.97
2023-11-25T02:18:39.663Z,97694.41
2023-11-25T02:23:43.331Z,97707.47
2023-11-25T02:28:46.410Z,97709.66
2023-11-25T02:33:49.643Z,97709.44
2023-11-25T02:38:52.793Z,97715.50
2023-11-25T02:43:55.832Z,97737.28
2023-11-25T02:48:59.407Z,97737.66
2023-11-25T02:54:02.219Z,97741.22
2023-11-25T02:59:05.152Z,97749.50
2023-11-25T03:04:09.337Z,97748.88
2023-11-25T03:09:12.966Z,97756.91
2023-11-25T03:14:17.907Z,97760.63
2023-11-25T03:19:21.803Z,97769.97
2023-11-25T03:24:25.626Z,97775.13
2023-11-25T03:29:28.608Z,97786.91
2023-11-25T03:34:31.716Z,97790.59
2023-11-25T03:39:34.406Z,97805.38
2023-11-25T03:44:38.384Z,97811.22
2023-11-25T03:49:42.071Z,97821.97
2023-11-25T03:54:44.899Z,97830.94
2023-11-25T03:59:47.884Z,97836.66
2023-11-25T04:04:50.863Z,97839.94
2023-11-25T04:09:54.043Z,97843.66
2023-11-25T04:14:57.102Z,97855.75
2023-11-25T04:19:59.961Z,97851.31
2023-11-25T04:25:04.678Z,97857.41
2023-11-25T04:30:10.184Z,97852.41
2023-11-25T04:35:15.371Z,97869.72
2023-11-25T04:40:18.610Z,97891.31
2023-11-25T04:45:21.951Z,97898.13
2023-11-25T04:50:28.480Z,97910.47
2023-11-25T04:55:31.474Z,97921.81
2023-11-25T05:00:34.512Z,97916.91
2023-11-25T05:05:37.823Z,97922.47
2023-11-25T05:10:40.692Z,97933.13
2023-11-25T05:15:45.303Z,97935.38
2023-11-25T05:20:48.079Z,97936.59
2023-11-25T05:25:51.047Z,97940.66
2023-11-25T05:30:53.958Z,97948.81
2023-11-25T05:35:57.111Z,97949.19
2023-11-25T05:40:59.889Z,97947.13
2023-11-25T05:46:02.738Z,97954.81
2023-11-25T05:51:05.700Z,97957.31
2023-11-25T05:56:08.814Z,97968.44
2023-11-25T06:01:11.608Z,97966.53
2023-11-25T06:06:16.014Z,97968.94
2023-11-25T06:11:34.575Z,97988.97
2023-11-25T06:16:38.360Z,97990.63
2023-11-25T06:21:43.241Z,97997.81
2023-11-25T06:26:49.267Z,98012.03
2023-11-25T06:31:53.072Z,98026.19
2023-11-25T06:36:56.451Z,98039.91
2023-11-25T06:42:01.483Z,98054.31
2023-11-25T06:47:04.732Z,98061.84
2023-11-25T06:52:07.744Z,98081.34
2023-11-25T06:57:10.489Z,98084.66
2023-11-25T07:02:14.081Z,98090.53
2023-11-25T07:07:17.098Z,98094.44
2023-11-25T07:12:19.772Z,98105.38
2023-11-25T07:17:23.715Z,98104.38
2023-11-25T07:22:27.086Z,98114.34
2023-11-25T07:27:29.899Z,98117.66
2023-11-25T07:32:33.596Z,98120.72
2023-11-25T07:37:36.946Z,98125.84
2023-11-25T07:42:40.955Z,98138.41
2023-11-25T07:47:45.520Z,98145.72
2023-11-25T07:52:48.994Z,98155.34
2023-11-25T07:57:52.250Z,98153.78
2023-11-25T08:02:57.378Z,98171.19
2023-11-25T08:08:00.451Z,98177.72
2023-11-25T08:13:03.943Z,98177.69
2023-11-25T08:18:07.021Z,98184.47
2023-11-25T08:23:11.377Z,98199.88
2023-11-25T08:28:14.266Z,98194.50
2023-11-25T08:33:17.181Z,98196.06
2023-11-25T08:38:21.167Z,98197.81
2023-11-25T08:43:26.427Z,98197.81
2023-11-25T08:48:32.443Z,98196.41
2023-11-25T08:53:36.812Z,98200.44
2023-11-25T08:58:50.652Z,98195.53
2023-11-25T09:03:57.425Z,98205.16
2023-11-25T09:09:00.621Z,98201.66
2023-11-25T09:14:08.127Z,98208.88
2023-11-25T09:19:11.459Z,98210.63
2023-11-25T09:24:15.722Z,98211.44
2023-11-25T09:29:19.637Z,98222.03
2023-11-25T09:34:23.347Z,98230.69
2023-11-25T09:39:28.496Z,98222.91
2023-11-25T09:44:36.760Z,98217.59
2023-11-25T09:49:49.405Z,98220.75
2023-11-25T09:55:01.096Z,98213.13
2023-11-25T10:00:07.985Z,98208.25
2023-11-25T10:05:15.313Z,98216.22
2023-11-25T10:10:25.918Z,98208.53
2023-11-25T10:15:28.694Z,98210.19
2023-11-25T10:20:43.119Z,98220.56
2023-11-25T10:25:47.568Z,98211.47
2023-11-25T10:30:57.995Z,98221.97
2023-11-25T10:36:01.597Z,98222.06
2023-11-25T10:41:07.380Z,98227.03
2023-11-25T10:46:12.254Z,98235.72
2023-11-25T10:51:17.172Z,98236.13
2023-11-25T10:56:21.790Z,98231.41
2023-11-25T11:01:28.375Z,98228.19
2023-11-25T11:06:47.224Z,98241.50
2023-11-25T11:11:57.949Z,98242.94
2023-11-25T11:17:28.162Z,98236.13
2023-11-25T11:22:33.763Z,98233.25
2023-11-25T11:28:15.204Z,98241.56
2023-11-25T11:33:20.073Z,98243.25
2023-11-25T11:38:32.372Z,98242.44
2023-11-25T11:43:36.220Z,98238.53
2023-11-25T11:48:39.992Z,98242.19
2023-11-25T11:53:44.834Z,98234.81
2023-11-25T11:59:08.574Z,98234.47
2023-11-25T12:04:11.954Z,98237.97
2023-11-25T12:09:18.366Z,98236.63
2023-11-25T12:14:28.993Z,98243.59
2023-11-25T12:19:34.736Z,98240.13
2023-11-25T12:24:37.704Z,98238.78
2023-11-25T12:29:40.864Z,98239.69
2023-11-25T12:34:46.862Z,98233.25
2023-11-25T12:39:52.409Z,98239.03
2023-11-25T12:44:57.187Z,98241.69
2023-11-25T12:50:13.934Z,98232.91
2023-11-25T12:55:17.305Z,98236.03
2023-11-25T13:00:20.761Z,98232.97
2023-11-25T13:05:26.624Z,98240.94
2023-11-25T13:10:29.947Z,98236.47
2023-11-25T13:15:32.852Z,98241.34
2023-11-25T13:20:36.112Z,98241.16
2023-11-25T13:25:40.228Z,98243.16
2023-11-25T13:30:43.999Z,98239.13
2023-11-25T13:35:48.440Z,98234.72
2023-11-25T13:40:51.654Z,98234.41
2023-11-25T13:45:54.517Z,98238.44
2023-11-25T13:50:57.939Z,98244.41
2023-11-25T13:56:00.786Z,98245.50
2023-11-25T14:01:03.827Z,98250.47
2023-11-25T14:06:06.880Z,98250.31
2023-11-25T14:11:12.341Z,98246.56
2023-11-25T14:16:15.970Z,98257.34
2023-11-25T14:21:18.746Z,98247.31
2023-11-25T14:26:21.679Z,98255.44
2023-11-25T14:31:24.776Z,98249.66
2023-11-25T14:36:29.312Z,98246.16
2023-11-25T14:41:32.348Z,98242.72
2023-11-25T14:46:35.231Z,98247.06
2023-11-25T14:51:38.176Z,98249.47
2023-11-25T14:56:42.122Z,98245.78
2023-11-25T15:01:48.402Z,98247.84
2023-11-25T15:06:51.276Z,98246.22
2023-11-25T15:11:54.906Z,98249.94
2023-11-25T15:17:01.594Z,98260.47
2023-11-25T15:22:05.774Z,98257.63
2023-11-25T15:27:09.937Z,98246.69
2023-11-25T15:32:13.197Z,98257.28
2023-11-25T15:37:15.999Z,98262.16
2023-11-25T15:42:19.532Z,98264.31
2023-11-25T15:47:22.348Z,98262.59
2023-11-25T15:52:25.116Z,98262.66
2023-11-25T15:57:28.404Z,98272.75
2023-11-25T16:02:31.454Z,98271.72
2023-11-25T16:07:34.308Z,98274.31
2023-11-25T16:12:37.915Z,98273.50
2023-11-25T16:17:41.085Z,98264.53
2023-11-25T16:22:44.681Z,98268.53
2023-11-25T16:27:47.367Z,98269.88
2023-11-25T16:32:52.111Z,98267.41
2023-11-25T16:37:55.231Z,98273.25
2023-11-25T16:42:58.420Z,98268.47
2023-11-25T16:48:02.162Z,98286.84
2023-11-25T16:53:06.258Z,98285.47
2023-11-25T16:58:10.323Z,98282.47
2023-11-25T17:03:13.461Z,98286.53
2023-11-25T17:08:16.617Z,98287.88
2023-11-25T17:13:19.955Z,98288.22
2023-11-25T17:18:27.885Z,98284.00
2023-11-25T17:23:32.828Z,98292.38
2023-11-25T17:28:39.842Z,98286.66
2023-11-25T17:33:44.844Z,98297.50
2023-11-25T17:38:48.651Z,98298.44
2023-11-25T17:43:52.008Z,98303.56
2023-11-25T17:48:55.312Z,98295.47
2023-11-25T17:53:59.692Z,98298.50
2023-11-25T17:59:04.432Z,98294.78
2023-11-25T18:04:10.674Z,98300.75
2023-11-25T18:09:21.705Z,98297.25
2023-11-25T18:14:27.931Z,98299.25
2023-11-25T18:19:36.186Z,98309.97
2023-11-25T18:24:45.256Z,98314.59
2023-11-25T18:29:54.429Z,98315.75
2023-11-25T18:35:02.779Z,98314.91
2023-11-25T18:40:09.594Z,98316.06
2023-11-25T18:45:13.742Z,98319.63
2023-11-25T18:50:18.134Z,98324.81
2023-11-25T18:55:21.698Z,98328.06
2023-11-25T19:00:25.710Z,98318.28
2023-11-25T19:05:28.807Z,98313.22
2023-11-25T19:10:32.986Z,98308.44
2023-11-25T19:15:36.641Z,98321.25
2023-11-25T19:20:40.493Z,98334.16
2023-11-25T19:25:43.615Z,98329.84
2023-11-25T19:30:49.982Z,98337.91
2023-11-25T19:35:56.287Z,98335.25
2023-11-25T19:54:12.583Z,98353.38
2023-11-25T19:59:18.507Z,98357.91
2023-11-25T20:04:23.407Z,98358.78
2023-11-25T20:09:27.297Z,98366.25
2023-11-25T20:14:30.719Z,98366.88
2023-11-25T20:19:37.357Z,98376.25
2023-11-25T20:25:06.635Z,98383.19
2023-11-25T20:30:56.763Z,98388.00
2023-11-25T20:36:21.932Z,98391.00
2023-11-25T20:41:26.682Z,98384.94
2023-11-25T20:46:30.651Z,98385.78
2023-11-25T20:51:36.540Z,98389.78
2023-11-25T20:56:40.296Z,98385.78
2023-11-25T21:01:44.599Z,98394.34
2023-11-25T21:06:47.735Z,98401.59
2023-11-25T21:11:51.077Z,98407.03
2023-11-25T21:16:54.224Z,98414.50
2023-11-25T21:21:57.308Z,98413.81
2023-11-25T21:27:00.125Z,98408.75
2023-11-25T21:32:12.170Z,98415.13
2023-11-25T21:37:15.406Z,98416.13
2023-11-25T21:42:18.714Z,98424.47
2023-11-25T21:47:21.544Z,98429.84
2023-11-25T21:52:25.593Z,98436.41
2023-11-25T21:57:28.477Z,98446.94
2023-11-25T22:02:31.469Z,98446.13
2023-11-25T22:07:36.415Z,98453.84
2023-11-25T22:12:39.440Z,98456.28
2023-11-25T22:17:44.446Z,98461.31
2023-11-25T22:22:48.403Z,98458.78
2023-11-25T22:27:51.153Z,98465.09
2023-11-25T22:32:54.443Z,98467.88
2023-11-25T22:37:59.889Z,98483.03
2023-11-25T22:43:09.144Z,98473.72
2023-11-25T22:48:12.766Z,98478.41
2023-11-25T22:53:15.775Z,98476.34
2023-11-25T22:58:19.522Z,98474.97
2023-11-25T23:03:23.921Z,98481.47
2023-11-25T23:08:26.689Z,98482.56
2023-11-25T23:13:34.335Z,98486.13
2023-11-25T23:18:44.764Z,98496.13
2023-11-25T23:23:49.146Z,98497.88
2023-11-25T23:28:52.735Z,98504.25
2023-11-25T23:33:56.138Z,98508.28
2023-11-25T23:38:59.311Z,98508.13
2023-11-25T23:44:02.055Z,98518.53
2023-11-25T23:49:06.043Z,98513.28
2023-11-25T23:54:08.923Z,98525.97
2023-11-25T23:59:13.483Z,98531.25
